URMN 172000Z 27002MPS 9999 BKN068 23/18 Q1015 R24/////// NOSIG RMK QFE724
QNH:(hPa/inHg/mmHg)1015 / 29.97 / 761
QFE:(hPa/inHg/mmHg)999 / 29.49 / 749
Temperature23
Dew Point18
Visibility> 10000
Weather
Cloud CoverBKN (6800);
Transition Altitude5000 ft.
Transition LevelFL60
SQUAWK